sensor_id;sensor_type;location;lat;lon;timestamp;pressure;altitude;pressure_sealevel;temperature;humidity
70072;BME280;57434;42.794;23.302;2023-04-02T00:03:22;94776.97;;;4.46;83.81
70072;BME280;57434;42.794;23.302;2023-04-02T00:04:24;94766.06;;;4.57;83.88
70072;BME280;57434;42.794;23.302;2023-04-02T00:05:27;94784.75;;;4.56;83.75
70072;BME280;57434;42.794;23.302;2023-04-02T00:07:31;94746.13;;;4.20;84.56
70072;BME280;57434;42.794;23.302;2023-04-02T00:08:37;94550.41;;;2.90;84.35
70072;BME280;57434;42.794;23.302;2023-04-02T00:09:40;94712.94;;;4.01;84.53
70072;BME280;57434;42.794;23.302;2023-04-02T00:11:00;94779.75;;;4.46;84.65
70072;BME280;57434;42.794;23.302;2023-04-02T00:12:14;94785.56;;;4.48;84.50
70072;BME280;57434;42.794;23.302;2023-04-02T00:14:25;94768.38;;;4.58;84.39
70072;BME280;57434;42.794;23.302;2023-04-02T00:15:28;94769.91;;;4.59;84.04
70072;BME280;57434;42.794;23.302;2023-04-02T00:16:31;94648.13;;;3.90;83.72
70072;BME280;57434;42.794;23.302;2023-04-02T00:17:33;94650.88;;;3.90;83.47
70072;BME280;57434;42.794;23.302;2023-04-02T00:18:40;94816.03;;;4.81;83.30
70072;BME280;57434;42.794;23.302;2023-04-02T00:19:53;94786.72;;;4.79;83.21
70072;BME280;57434;42.794;23.302;2023-04-02T00:21:11;94807.81;;;4.86;83.24
70072;BME280;57434;42.794;23.302;2023-04-02T00:22:21;94690.31;;;4.18;82.70
70072;BME280;57434;42.794;23.302;2023-04-02T00:23:25;94646.47;;;3.83;82.43
70072;BME280;57434;42.794;23.302;2023-04-02T00:24:27;94666.03;;;4.03;82.56
70072;BME280;57434;42.794;23.302;2023-04-02T00:25:33;94694.63;;;4.19;82.51
70072;BME280;57434;42.794;23.302;2023-04-02T00:26:38;94793.91;;;4.86;82.44
70072;BME280;57434;42.794;23.302;2023-04-02T00:27:43;94679.38;;;4.14;82.17
70072;BME280;57434;42.794;23.302;2023-04-02T00:28:45;94790.25;;;4.80;82.04
70072;BME280;57434;42.794;23.302;2023-04-02T00:29:57;94627.72;;;3.93;81.62
70072;BME280;57434;42.794;23.302;2023-04-02T00:30:59;94807.22;;;5.06;81.95
70072;BME280;57434;42.794;23.302;2023-04-02T00:32:01;94813.25;;;5.04;81.79
70072;BME280;57434;42.794;23.302;2023-04-02T00:33:03;94771.16;;;4.97;81.71
70072;BME280;57434;42.794;23.302;2023-04-02T00:34:07;94776.16;;;4.93;81.35
70072;BME280;57434;42.794;23.302;2023-04-02T00:35:12;94667.47;;;4.37;81.15
70072;BME280;57434;42.794;23.302;2023-04-02T00:36:20;94784.00;;;5.09;81.14
70072;BME280;57434;42.794;23.302;2023-04-02T00:37:24;94794.94;;;5.13;80.91
70072;BME280;57434;42.794;23.302;2023-04-02T00:38:32;94655.66;;;4.13;80.62
70072;BME280;57434;42.794;23.302;2023-04-02T00:39:38;94716.03;;;4.42;80.58
70072;BME280;57434;42.794;23.302;2023-04-02T00:40:41;94791.69;;;4.75;81.08
70072;BME280;57434;42.794;23.302;2023-04-02T00:41:43;94775.22;;;4.48;81.54
70072;BME280;57434;42.794;23.302;2023-04-02T00:42:47;94718.66;;;3.98;81.24
70072;BME280;57434;42.794;23.302;2023-04-02T00:43:49;94792.25;;;4.41;81.53
70072;BME280;57434;42.794;23.302;2023-04-02T00:44:52;94758.47;;;4.19;81.51
70072;BME280;57434;42.794;23.302;2023-04-02T00:46:00;94662.84;;;3.48;81.55
70072;BME280;57434;42.794;23.302;2023-04-02T00:47:29;94794.16;;;4.35;81.71
70072;BME280;57434;42.794;23.302;2023-04-02T00:48:40;94787.56;;;4.23;82.03
70072;BME280;57434;42.794;23.302;2023-04-02T00:49:45;94660.22;;;3.45;82.24
70072;BME280;57434;42.794;23.302;2023-04-02T00:50:48;94760.75;;;4.20;82.29
70072;BME280;57434;42.794;23.302;2023-04-02T00:51:55;94643.72;;;3.50;82.07
70072;BME280;57434;42.794;23.302;2023-04-02T00:52:59;94787.66;;;4.38;81.90
70072;BME280;57434;42.794;23.302;2023-04-02T00:54:09;94773.88;;;4.43;81.78
70072;BME280;57434;42.794;23.302;2023-04-02T00:55:26;94796.44;;;4.60;81.79
70072;BME280;57434;42.794;23.302;2023-04-02T00:56:38;94661.28;;;3.80;81.37
70072;BME280;57434;42.794;23.302;2023-04-02T00:57:41;94786.09;;;4.61;81.53
70072;BME280;57434;42.794;23.302;2023-04-02T00:58:44;94786.03;;;4.70;81.35
70072;BME280;57434;42.794;23.302;2023-04-02T00:59:56;94800.22;;;4.72;81.55
70072;BME280;57434;42.794;23.302;2023-04-02T01:00:59;94826.00;;;4.72;81.33
70072;BME280;57434;42.794;23.302;2023-04-02T01:04:34;94698.88;;;4.05;80.97
70072;BME280;57434;42.794;23.302;2023-04-02T01:05:36;94785.03;;;4.58;81.10
70072;BME280;57434;42.794;23.302;2023-04-02T01:06:38;94779.84;;;4.51;81.13
70072;BME280;57434;42.794;23.302;2023-04-02T01:09:46;94686.50;;;3.91;81.37
70072;BME280;57434;42.794;23.302;2023-04-02T01:10:39;94798.09;;;4.67;81.45
70072;BME280;57434;42.794;23.302;2023-04-02T01:11:53;94821.22;;;4.73;81.54
70072;BME280;57434;42.794;23.302;2023-04-02T01:13:17;94819.00;;;4.77;81.28
70072;BME280;57434;42.794;23.302;2023-04-02T01:15:42;94664.84;;;3.95;81.00
70072;BME280;57434;42.794;23.302;2023-04-02T01:17:03;94814.63;;;4.85;80.99
70072;BME280;57434;42.794;23.302;2023-04-02T01:18:31;94748.69;;;4.71;80.76
70072;BME280;57434;42.794;23.302;2023-04-02T01:23:26;94794.06;;;4.92;80.61
70072;BME280;57434;42.794;23.302;2023-04-02T01:24:31;94691.13;;;4.09;80.52
70072;BME280;57434;42.794;23.302;2023-04-02T01:26:44;94804.28;;;4.86;80.84
70072;BME280;57434;42.794;23.302;2023-04-02T01:27:51;94775.00;;;4.75;80.61
70072;BME280;57434;42.794;23.302;2023-04-02T01:29:02;94800.25;;;4.87;80.61
70072;BME280;57434;42.794;23.302;2023-04-02T01:30:06;94806.75;;;4.84;80.79
70072;BME280;57434;42.794;23.302;2023-04-02T01:31:09;94773.28;;;4.63;80.79
70072;BME280;57434;42.794;23.302;2023-04-02T01:32:14;94817.88;;;4.84;80.82
70072;BME280;57434;42.794;23.302;2023-04-02T01:33:20;94704.75;;;4.22;80.89
70072;BME280;57434;42.794;23.302;2023-04-02T01:34:24;94817.88;;;4.84;81.32
70072;BME280;57434;42.794;23.302;2023-04-02T01:35:31;94757.53;;;4.46;81.40
70072;BME280;57434;42.794;23.302;2023-04-02T01:38:19;94785.00;;;4.82;81.75
70072;BME280;57434;42.794;23.302;2023-04-02T01:44:48;94721.88;;;4.44;81.79
70072;BME280;57434;42.794;23.302;2023-04-02T01:45:51;94774.50;;;4.62;81.78
70072;BME280;57434;42.794;23.302;2023-04-02T01:46:53;94798.22;;;4.72;81.76
70072;BME280;57434;42.794;23.302;2023-04-02T01:47:55;94646.03;;;3.99;81.17
70072;BME280;57434;42.794;23.302;2023-04-02T01:49:01;94773.00;;;4.76;80.93
70072;BME280;57434;42.794;23.302;2023-04-02T01:51:31;94804.16;;;4.80;80.67
70072;BME280;57434;42.794;23.302;2023-04-02T01:52:37;94793.16;;;4.86;80.64
70072;BME280;57434;42.794;23.302;2023-04-02T01:53:40;94751.34;;;4.65;80.83
70072;BME280;57434;42.794;23.302;2023-04-02T01:54:41;94640.47;;;3.99;80.51
70072;BME280;57434;42.794;23.302;2023-04-02T01:55:55;94781.16;;;4.79;80.55
70072;BME280;57434;42.794;23.302;2023-04-02T01:56:58;94683.53;;;4.19;80.07
70072;BME280;57434;42.794;23.302;2023-04-02T01:58:00;94809.06;;;4.85;80.40
70072;BME280;57434;42.794;23.302;2023-04-02T01:59:03;94682.69;;;4.03;80.35
70072;BME280;57434;42.794;23.302;2023-04-02T02:00:05;94779.19;;;4.56;80.42
70072;BME280;57434;42.794;23.302;2023-04-02T02:01:13;94646.00;;;3.61;80.48
70072;BME280;57434;42.794;23.302;2023-04-02T02:02:16;94810.31;;;4.60;81.00
70072;BME280;57434;42.794;23.302;2023-04-02T02:03:18;94780.38;;;4.40;81.17
70072;BME280;57434;42.794;23.302;2023-04-02T02:04:21;94769.28;;;4.40;81.19
70072;BME280;57434;42.794;23.302;2023-04-02T02:05:23;94779.66;;;4.55;81.40
70072;BME280;57434;42.794;23.302;2023-04-02T02:06:25;94822.34;;;4.66;81.57
70072;BME280;57434;42.794;23.302;2023-04-02T02:07:27;94687.19;;;4.01;81.46
70072;BME280;57434;42.794;23.302;2023-04-02T02:08:32;94813.91;;;4.75;81.62
70072;BME280;57434;42.794;23.302;2023-04-02T02:09:37;94755.13;;;4.53;81.15
70072;BME280;57434;42.794;23.302;2023-04-02T02:10:39;94784.97;;;4.67;81.39
70072;BME280;57434;42.794;23.302;2023-04-02T02:11:41;94780.00;;;4.48;81.23
70072;BME280;57434;42.794;23.302;2023-04-02T02:12:43;94760.09;;;4.49;81.25
70072;BME280;57434;42.794;23.302;2023-04-02T02:13:50;94767.91;;;4.60;81.47
70072;BME280;57434;42.794;23.302;2023-04-02T02:14:53;94768.84;;;4.57;81.49
70072;BME280;57434;42.794;23.302;2023-04-02T02:15:58;94792.09;;;4.83;81.67
70072;BME280;57434;42.794;23.302;2023-04-02T02:17:02;94789.59;;;4.70;81.54
70072;BME280;57434;42.794;23.302;2023-04-02T02:18:06;94779.63;;;4.78;81.44
70072;BME280;57434;42.794;23.302;2023-04-02T02:19:27;94768.38;;;4.58;81.15
70072;BME280;57434;42.794;23.302;2023-04-02T02:20:31;94694.13;;;3.96;81.15
70072;BME280;57434;42.794;23.302;2023-04-02T02:21:42;94762.38;;;4.36;81.32
70072;BME280;57434;42.794;23.302;2023-04-02T02:22:46;94803.59;;;4.28;81.54
70072;BME280;57434;42.794;23.302;2023-04-02T02:23:49;94784.31;;;4.25;81.77
70072;BME280;57434;42.794;23.302;2023-04-02T02:24:51;94786.28;;;4.33;81.87
70072;BME280;57434;42.794;23.302;2023-04-02T02:25:53;94747.25;;;4.13;81.96
70072;BME280;57434;42.794;23.302;2023-04-02T02:28:20;94814.00;;;4.42;81.91
70072;BME280;57434;42.794;23.302;2023-04-02T02:29:25;94651.41;;;3.55;81.71
70072;BME280;57434;42.794;23.302;2023-04-02T02:30:42;94792.94;;;4.27;81.98
70072;BME280;57434;42.794;23.302;2023-04-02T02:31:46;94677.91;;;3.23;82.78
70072;BME280;57434;42.794;23.302;2023-04-02T02:34:19;94791.78;;;4.19;82.73
70072;BME280;57434;42.794;23.302;2023-04-02T02:36:14;94783.16;;;4.17;82.55
70072;BME280;57434;42.794;23.302;2023-04-02T02:37:01;94800.34;;;4.30;82.42
70072;BME280;57434;42.794;23.302;2023-04-02T02:38:28;94795.50;;;4.39;82.01
70072;BME280;57434;42.794;23.302;2023-04-02T02:39:43;94754.38;;;4.05;81.76
70072;BME280;57434;42.794;23.302;2023-04-02T02:40:48;94819.78;;;4.30;81.81
70072;BME280;57434;42.794;23.302;2023-04-02T02:42:03;94810.56;;;4.24;81.77
70072;BME280;57434;42.794;23.302;2023-04-02T02:43:11;94800.94;;;4.34;81.55
70072;BME280;57434;42.794;23.302;2023-04-02T02:44:19;94795.44;;;4.25;81.55
70072;BME280;57434;42.794;23.302;2023-04-02T02:45:26;94800.63;;;4.32;81.55
70072;BME280;57434;42.794;23.302;2023-04-02T02:46:29;94797.03;;;4.17;81.56
70072;BME280;57434;42.794;23.302;2023-04-02T02:47:35;94658.28;;;3.36;81.69
70072;BME280;57434;42.794;23.302;2023-04-02T02:48:39;94788.28;;;4.09;81.52
70072;BME280;57434;42.794;23.302;2023-04-02T02:49:48;94761.59;;;4.12;81.31
70072;BME280;57434;42.794;23.302;2023-04-02T02:50:52;94819.94;;;4.26;81.42
70072;BME280;57434;42.794;23.302;2023-04-02T02:53:05;94804.19;;;4.32;81.32
70072;BME280;57434;42.794;23.302;2023-04-02T02:54:08;94650.84;;;3.42;81.24
70072;BME280;57434;42.794;23.302;2023-04-02T02:55:14;94783.22;;;4.31;81.46
70072;BME280;57434;42.794;23.302;2023-04-02T02:56:18;94785.25;;;4.22;81.20
70072;BME280;57434;42.794;23.302;2023-04-02T02:57:27;94819.38;;;4.46;81.23
70072;BME280;57434;42.794;23.302;2023-04-02T02:58:31;94796.31;;;4.31;81.26
70072;BME280;57434;42.794;23.302;2023-04-02T02:59:35;94775.81;;;4.28;80.90
70072;BME280;57434;42.794;23.302;2023-04-02T03:00:38;94647.97;;;3.36;81.18
70072;BME280;57434;42.794;23.302;2023-04-02T03:01:40;94783.66;;;4.06;81.36
70072;BME280;57434;42.794;23.302;2023-04-02T03:02:44;94785.41;;;4.27;81.53
70072;BME280;57434;42.794;23.302;2023-04-02T03:03:47;94780.13;;;4.05;81.84
70072;BME280;57434;42.794;23.302;2023-04-02T03:04:54;94652.16;;;3.32;81.75
70072;BME280;57434;42.794;23.302;2023-04-02T03:06:02;94790.81;;;4.22;82.15
70072;BME280;57434;42.794;23.302;2023-04-02T03:07:06;94634.72;;;3.07;82.26
70072;BME280;57434;42.794;23.302;2023-04-02T03:08:16;94791.22;;;4.05;82.43
70072;BME280;57434;42.794;23.302;2023-04-02T03:09:57;94778.09;;;4.15;82.56
70072;BME280;57434;42.794;23.302;2023-04-02T03:12:29;94791.41;;;4.02;83.33
70072;BME280;57434;42.794;23.302;2023-04-02T03:13:36;94780.13;;;4.05;83.65
70072;BME280;57434;42.794;23.302;2023-04-02T03:15:10;94752.78;;;3.89;83.52
70072;BME280;57434;42.794;23.302;2023-04-02T03:16:27;94736.03;;;3.74;83.65
70072;BME280;57434;42.794;23.302;2023-04-02T03:17:52;94670.25;;;3.42;83.64
70072;BME280;57434;42.794;23.302;2023-04-02T03:19:34;94786.81;;;4.23;83.66
70072;BME280;57434;42.794;23.302;2023-04-02T03:20:56;94666.41;;;3.39;83.42
70072;BME280;57434;42.794;23.302;2023-04-02T03:22:13;94791.25;;;4.29;83.35
70072;BME280;57434;42.794;23.302;2023-04-02T03:23:23;94802.06;;;4.27;83.31
70072;BME280;57434;42.794;23.302;2023-04-02T03:26:54;94813.28;;;4.33;82.87
70072;BME280;57434;42.794;23.302;2023-04-02T03:28:03;94652.44;;;3.34;82.59
70072;BME280;57434;42.794;23.302;2023-04-02T03:29:17;94773.94;;;4.10;82.83
70072;BME280;57434;42.794;23.302;2023-04-02T03:31:40;94778.09;;;4.15;81.97
70072;BME280;57434;42.794;23.302;2023-04-02T03:32:46;94679.44;;;3.57;82.04
70072;BME280;57434;42.794;23.302;2023-04-02T03:34:04;94706.59;;;3.77;82.05
70072;BME280;57434;42.794;23.302;2023-04-02T03:36:28;94783.72;;;4.21;81.56
70072;BME280;57434;42.794;23.302;2023-04-02T03:37:41;94788.16;;;4.27;81.73
70072;BME280;57434;42.794;23.302;2023-04-02T03:40:18;94657.63;;;3.41;81.34
70072;BME280;57434;42.794;23.302;2023-04-02T03:41:30;94661.00;;;3.45;81.15
70072;BME280;57434;42.794;23.302;2023-04-02T03:42:46;94695.25;;;3.66;81.13
70072;BME280;57434;42.794;23.302;2023-04-02T03:43:56;94660.00;;;3.33;81.17
70072;BME280;57434;42.794;23.302;2023-04-02T03:46:24;94794.34;;;3.98;81.85
70072;BME280;57434;42.794;23.302;2023-04-02T03:47:35;94811.44;;;4.06;81.71
70072;BME280;57434;42.794;23.302;2023-04-02T03:48:50;94697.00;;;3.21;81.30
70072;BME280;57434;42.794;23.302;2023-04-02T03:52:27;94810.03;;;4.10;80.79
70072;BME280;57434;42.794;23.302;2023-04-02T03:53:30;94701.47;;;3.19;80.72
70072;BME280;57434;42.794;23.302;2023-04-02T03:54:32;94802.94;;;3.76;81.05
70072;BME280;57434;42.794;23.302;2023-04-02T03:55:36;94676.44;;;3.04;81.48
70072;BME280;57434;42.794;23.302;2023-04-02T03:56:39;94773.97;;;3.68;81.14
70072;BME280;57434;42.794;23.302;2023-04-02T04:00:24;94678.53;;;3.18;81.22
70072;BME280;57434;42.794;23.302;2023-04-02T04:01:32;94816.13;;;3.91;81.13
70072;BME280;57434;42.794;23.302;2023-04-02T04:02:50;94660.28;;;3.02;81.27
70072;BME280;57434;42.794;23.302;2023-04-02T04:03:55;94678.66;;;2.82;81.98
70072;BME280;57434;42.794;23.302;2023-04-02T04:04:58;94614.78;;;2.25;82.85
70072;BME280;57434;42.794;23.302;2023-04-02T04:06:07;94781.47;;;3.44;83.18
70072;BME280;57434;42.794;23.302;2023-04-02T04:07:19;94803.19;;;3.46;83.23
70072;BME280;57434;42.794;23.302;2023-04-02T04:08:30;94749.47;;;3.34;83.28
70072;BME280;57434;42.794;23.302;2023-04-02T04:09:38;94792.97;;;3.61;83.10
70072;BME280;57434;42.794;23.302;2023-04-02T04:10:42;94802.63;;;3.74;83.27
70072;BME280;57434;42.794;23.302;2023-04-02T04:11:47;94822.88;;;3.57;83.52
70072;BME280;57434;42.794;23.302;2023-04-02T04:12:53;94814.41;;;3.60;83.45
70072;BME280;57434;42.794;23.302;2023-04-02T04:14:08;94685.97;;;3.03;83.28
70072;BME280;57434;42.794;23.302;2023-04-02T04:15:21;94839.78;;;3.68;83.47
70072;BME280;57434;42.794;23.302;2023-04-02T04:16:28;94807.56;;;3.70;83.50
70072;BME280;57434;42.794;23.302;2023-04-02T04:19:24;94681.75;;;3.17;83.06
70072;BME280;57434;42.794;23.302;2023-04-02T04:20:50;94803.06;;;4.15;82.79
70072;BME280;57434;42.794;23.302;2023-04-02T04:22:12;94807.47;;;4.22;82.27
70072;BME280;57434;42.794;23.302;2023-04-02T04:23:36;94785.03;;;4.10;81.74
70072;BME280;57434;42.794;23.302;2023-04-02T04:24:38;94807.38;;;4.16;80.84
70072;BME280;57434;42.794;23.302;2023-04-02T04:25:40;94811.78;;;4.23;80.32
70072;BME280;57434;42.794;23.302;2023-04-02T04:29:13;94825.16;;;4.00;80.55
70072;BME280;57434;42.794;23.302;2023-04-02T04:30:49;94816.94;;;4.15;80.23
70072;BME280;57434;42.794;23.302;2023-04-02T04:31:52;94822.72;;;3.93;80.06
70072;BME280;57434;42.794;23.302;2023-04-02T04:33:01;94811.25;;;3.76;79.86
70072;BME280;57434;42.794;23.302;2023-04-02T04:34:10;94811.72;;;3.75;80.21
70072;BME280;57434;42.794;23.302;2023-04-02T04:35:20;94747.19;;;3.23;80.58
70072;BME280;57434;42.794;23.302;2023-04-02T04:36:27;94837.66;;;3.63;81.12
70072;BME280;57434;42.794;23.302;2023-04-02T04:37:36;94792.69;;;3.59;81.08
70072;BME280;57434;42.794;23.302;2023-04-02T04:38:47;94711.22;;;2.96;80.93
70072;BME280;57434;42.794;23.302;2023-04-02T04:39:58;94718.59;;;3.08;81.10
70072;BME280;57434;42.794;23.302;2023-04-02T04:41:12;94818.81;;;3.67;81.25
70072;BME280;57434;42.794;23.302;2023-04-02T04:42:28;94830.22;;;3.69;81.53
70072;BME280;57434;42.794;23.302;2023-04-02T04:44:50;94845.78;;;3.75;81.46
70072;BME280;57434;42.794;23.302;2023-04-02T04:46:19;94801.25;;;3.70;81.08
70072;BME280;57434;42.794;23.302;2023-04-02T04:47:25;94691.69;;;2.99;81.05
70072;BME280;57434;42.794;23.302;2023-04-02T04:48:34;94834.25;;;4.01;81.01
70072;BME280;57434;42.794;23.302;2023-04-02T04:49:52;94838.84;;;3.71;81.19
70072;BME280;57434;42.794;23.302;2023-04-02T04:51:03;94832.88;;;4.05;81.38
70072;BME280;57434;42.794;23.302;2023-04-02T04:52:25;94837.91;;;4.16;81.13
70072;BME280;57434;42.794;23.302;2023-04-02T04:53:29;94721.28;;;3.35;81.06
70072;BME280;57434;42.794;23.302;2023-04-02T04:54:31;94862.72;;;4.20;80.80
70072;BME280;57434;42.794;23.302;2023-04-02T04:55:37;94789.16;;;3.91;80.45
70072;BME280;57434;42.794;23.302;2023-04-02T04:56:44;94709.84;;;3.42;80.05
70072;BME280;57434;42.794;23.302;2023-04-02T04:57:48;94645.44;;;3.15;79.78
70072;BME280;57434;42.794;23.302;2023-04-02T04:59:04;94838.41;;;4.38;79.67
70072;BME280;57434;42.794;23.302;2023-04-02T05:00:29;94742.41;;;3.66;80.13
70072;BME280;57434;42.794;23.302;2023-04-02T05:01:44;94798.97;;;4.01;80.67
70072;BME280;57434;42.794;23.302;2023-04-02T05:03:20;94859.50;;;4.45;80.85
70072;BME280;57434;42.794;23.302;2023-04-02T05:04:38;94838.56;;;4.35;80.57
70072;BME280;57434;42.794;23.302;2023-04-02T05:05:41;94860.75;;;4.44;80.58
70072;BME280;57434;42.794;23.302;2023-04-02T05:07:02;94828.28;;;4.50;80.74
70072;BME280;57434;42.794;23.302;2023-04-02T05:08:15;94806.91;;;4.41;80.82
70072;BME280;57434;42.794;23.302;2023-04-02T05:10:39;94850.63;;;4.79;80.71
70072;BME280;57434;42.794;23.302;2023-04-02T05:11:56;94738.75;;;4.17;80.08
70072;BME280;57434;42.794;23.302;2023-04-02T05:13:14;94831.47;;;4.82;79.60
70072;BME280;57434;42.794;23.302;2023-04-02T05:14:23;94844.88;;;5.07;79.56
70072;BME280;57434;42.794;23.302;2023-04-02T05:17:16;94825.22;;;4.96;79.27
70072;BME280;57434;42.794;23.302;2023-04-02T05:19:48;94846.34;;;5.17;78.94
70072;BME280;57434;42.794;23.302;2023-04-02T05:22:11;94839.66;;;5.38;78.92
70072;BME280;57434;42.794;23.302;2023-04-02T05:22:53;94854.38;;;5.54;78.98
70072;BME280;57434;42.794;23.302;2023-04-02T05:24:12;94725.41;;;4.83;78.50
70072;BME280;57434;42.794;23.302;2023-04-02T05:25:28;94832.38;;;5.70;78.21
70072;BME280;57434;42.794;23.302;2023-04-02T05:26:39;94847.91;;;5.92;77.88
70072;BME280;57434;42.794;23.302;2023-04-02T05:29:22;94845.41;;;6.08;76.80
70072;BME280;57434;42.794;23.302;2023-04-02T05:33:03;94853.72;;;6.38;75.50
70072;BME280;57434;42.794;23.302;2023-04-02T05:34:06;94870.44;;;6.38;75.49
70072;BME280;57434;42.794;23.302;2023-04-02T05:35:15;94837.03;;;6.23;75.10
70072;BME280;57434;42.794;23.302;2023-04-02T05:36:26;94843.19;;;6.47;74.73
70072;BME280;57434;42.794;23.302;2023-04-02T05:37:29;94858.28;;;6.41;74.73
70072;BME280;57434;42.794;23.302;2023-04-02T05:38:34;94760.84;;;5.91;74.97
70072;BME280;57434;42.794;23.302;2023-04-02T05:39:36;94735.94;;;5.67;75.54
70072;BME280;57434;42.794;23.302;2023-04-02T05:40:41;94782.06;;;6.03;76.02
70072;BME280;57434;42.794;23.302;2023-04-02T05:41:46;94780.06;;;5.89;76.08
70072;BME280;57434;42.794;23.302;2023-04-02T05:42:49;94742.75;;;5.81;75.92
70072;BME280;57434;42.794;23.302;2023-04-02T05:46:17;94848.25;;;6.64;74.84
70072;BME280;57434;42.794;23.302;2023-04-02T05:47:22;94721.16;;;5.76;74.79
70072;BME280;57434;42.794;23.302;2023-04-02T05:48:34;94889.78;;;6.82;74.93
70072;BME280;57434;42.794;23.302;2023-04-02T05:50:42;94900.38;;;6.78;75.40
70072;BME280;57434;42.794;23.302;2023-04-02T05:51:48;94867.00;;;6.63;75.93
70072;BME280;57434;42.794;23.302;2023-04-02T05:52:57;94866.16;;;6.77;75.72
70072;BME280;57434;42.794;23.302;2023-04-02T05:54:04;94753.25;;;6.06;75.79
70072;BME280;57434;42.794;23.302;2023-04-02T05:56:25;94752.97;;;6.25;75.75
70072;BME280;57434;42.794;23.302;2023-04-02T05:57:37;94879.53;;;6.94;75.19
70072;BME280;57434;42.794;23.302;2023-04-02T06:00:07;94775.16;;;6.54;75.56
70072;BME280;57434;42.794;23.302;2023-04-02T06:02:43;94881.78;;;7.30;75.46
70072;BME280;57434;42.794;23.302;2023-04-02T06:04:01;94773.59;;;6.73;74.35
70072;BME280;57434;42.794;23.302;2023-04-02T06:05:23;94901.31;;;7.51;74.33
70072;BME280;57434;42.794;23.302;2023-04-02T06:07:42;94894.03;;;7.59;74.71
70072;BME280;57434;42.794;23.302;2023-04-02T06:08:56;94847.00;;;7.46;74.50
70072;BME280;57434;42.794;23.302;2023-04-02T06:12:16;94880.84;;;7.85;71.93
70072;BME280;57434;42.794;23.302;2023-04-02T06:13:19;94900.41;;;7.85;71.60
70072;BME280;57434;42.794;23.302;2023-04-02T06:14:21;94829.41;;;7.66;71.88
70072;BME280;57434;42.794;23.302;2023-04-02T06:15:23;94878.53;;;8.09;72.69
70072;BME280;57434;42.794;23.302;2023-04-02T06:16:27;94895.13;;;8.19;72.82
70072;BME280;57434;42.794;23.302;2023-04-02T06:17:33;94880.44;;;8.24;72.12
70072;BME280;57434;42.794;23.302;2023-04-02T06:18:43;94734.78;;;7.16;70.95
70072;BME280;57434;42.794;23.302;2023-04-02T06:19:46;94757.91;;;7.22;70.00
70072;BME280;57434;42.794;23.302;2023-04-02T06:20:48;94882.81;;;8.05;69.35
70072;BME280;57434;42.794;23.302;2023-04-02T06:21:51;94869.81;;;7.96;69.16
70072;BME280;57434;42.794;23.302;2023-04-02T06:24:21;94904.72;;;8.12;68.12
70072;BME280;57434;42.794;23.302;2023-04-02T06:25:39;94737.94;;;7.29;68.50
70072;BME280;57434;42.794;23.302;2023-04-02T06:26:49;94869.28;;;8.24;67.64
70072;BME280;57434;42.794;23.302;2023-04-02T06:27:56;94851.97;;;8.20;68.65
70072;BME280;57434;42.794;23.302;2023-04-02T06:30:18;94882.16;;;8.47;68.76
70072;BME280;57434;42.794;23.302;2023-04-02T06:31:44;94880.94;;;8.59;69.11
70072;BME280;57434;42.794;23.302;2023-04-02T06:32:50;94770.19;;;7.88;69.97
70072;BME280;57434;42.794;23.302;2023-04-02T06:33:52;94882.56;;;8.71;69.52
70072;BME280;57434;42.794;23.302;2023-04-02T06:34:54;94871.94;;;8.81;68.11
70072;BME280;57434;42.794;23.302;2023-04-02T06:35:56;94883.16;;;8.87;67.49
70072;BME280;57434;42.794;23.302;2023-04-02T06:37:03;94781.44;;;8.36;68.40
70072;BME280;57434;42.794;23.302;2023-04-02T06:38:11;94765.69;;;7.96;66.85
70072;BME280;57434;42.794;23.302;2023-04-02T06:39:18;94873.75;;;8.84;67.00
70072;BME280;57434;42.794;23.302;2023-04-02T06:41:25;94769.81;;;8.06;65.05
70072;BME280;57434;42.794;23.302;2023-04-02T06:42:33;94762.91;;;7.96;64.86
70072;BME280;57434;42.794;23.302;2023-04-02T06:43:41;94873.88;;;8.64;66.20
70072;BME280;57434;42.794;23.302;2023-04-02T06:44:46;94888.75;;;8.87;67.06
70072;BME280;57434;42.794;23.302;2023-04-02T06:45:50;94878.81;;;8.85;68.02
70072;BME280;57434;42.794;23.302;2023-04-02T06:46:57;94755.34;;;8.02;67.67
70072;BME280;57434;42.794;23.302;2023-04-02T06:48:01;94875.72;;;8.72;66.67
70072;BME280;57434;42.794;23.302;2023-04-02T06:49:14;94899.34;;;8.71;65.60
70072;BME280;57434;42.794;23.302;2023-04-02T06:50:22;94888.72;;;8.81;66.51
70072;BME280;57434;42.794;23.302;2023-04-02T06:51:26;94866.25;;;8.64;66.64
70072;BME280;57434;42.794;23.302;2023-04-02T06:52:36;94895.16;;;8.93;67.09
70072;BME280;57434;42.794;23.302;2023-04-02T06:53:45;94860.81;;;8.92;67.13
70072;BME280;57434;42.794;23.302;2023-04-02T06:54:47;94887.75;;;8.90;66.89
70072;BME280;57434;42.794;23.302;2023-04-02T06:56:00;94883.78;;;9.07;66.05
70072;BME280;57434;42.794;23.302;2023-04-02T06:57:04;94902.19;;;9.20;66.30
70072;BME280;57434;42.794;23.302;2023-04-02T06:58:08;94854.25;;;9.01;66.13
70072;BME280;57434;42.794;23.302;2023-04-02T06:59:10;94890.81;;;9.34;66.06
70072;BME280;57434;42.794;23.302;2023-04-02T07:00:45;94884.25;;;9.54;64.63
70072;BME280;57434;42.794;23.302;2023-04-02T07:02:04;94890.63;;;9.55;64.18
70072;BME280;57434;42.794;23.302;2023-04-02T07:03:22;94915.66;;;9.80;64.51
70072;BME280;57434;42.794;23.302;2023-04-02T07:04:24;94901.19;;;9.93;63.44
70072;BME280;57434;42.794;23.302;2023-04-02T07:05:26;94766.53;;;9.15;61.39
70072;BME280;57434;42.794;23.302;2023-04-02T07:06:28;94857.59;;;9.81;63.73
70072;BME280;57434;42.794;23.302;2023-04-02T07:07:30;94898.16;;;10.19;62.46
70072;BME280;57434;42.794;23.302;2023-04-02T07:08:32;94894.84;;;10.21;62.16
70072;BME280;57434;42.794;23.302;2023-04-02T07:09:33;94813.03;;;9.66;62.64
70072;BME280;57434;42.794;23.302;2023-04-02T07:10:35;94774.28;;;9.54;63.69
70072;BME280;57434;42.794;23.302;2023-04-02T07:11:37;94881.09;;;10.39;62.95
70072;BME280;57434;42.794;23.302;2023-04-02T07:12:39;94786.03;;;9.80;61.76
70072;BME280;57434;42.794;23.302;2023-04-02T07:13:42;94879.56;;;10.38;61.58